Latest Weather Observations for Forrest

IDW60801

Issued at 7:35 am WST Friday 1 August 2014 (issued every 30 minutes, with the page automatically refreshed every 10 minutes)

About weather observations | Map of weather stations | Latest weather observations for WA | Other Formats
Station Details ID: 011052 Name: FORREST Lat: -30.85 Lon: 128.11 Height: 159.0 m
Data from the previous 72 hours. | See also: Recent months at Forrest
Date/Time
WST
Temp
°C
App
Temp
°C
Dew
Point
Rel
Hum
%
Delta-T
°C
Wind Press
QNH
hPa
Press
MSL
hPa
Rain
since 9 am
mm
Dir
 
Spd
km/h
Gust
km/h
Spd
kts
Gust
kts
01/07:31am 7.8 4.8 7.8 100 0.0 SW 13 17 7 9 1027.9 - 0.0
01/07:01am 6.9 - 7.0 - - SW 11 13 6 7 1027.5 - 0.0
01/06:31am 5.8 2.4 5.8 100 0.0 WSW 13 15 7 8 1027.4 - 0.0
01/06:01am 4.9 0.9 4.9 100 0.0 W 15 15 8 8 1027.0 - 0.0
01/06:00am 4.9 0.9 4.9 100 0.0 W 15 - 8 - - 1027.0 -
01/05:31am 5.4 1.9 5.4 100 0.0 WSW 13 15 7 8 1026.7 - 0.0
01/05:01am 6.5 3.2 6.5 100 0.0 WSW 13 15 7 8 1026.4 - 0.0
01/04:31am 7.5 4.4 7.4 99 0.0 W 13 15 7 8 1026.2 - 0.0
01/04:01am 8.5 4.9 8.4 99 0.0 SW 17 24 9 13 1026.0 - 0.0
01/03:31am 8.4 5.5 8.3 99 0.0 WSW 13 15 7 8 1026.0 - 0.0
01/03:01am 8.4 5.5 8.3 99 0.0 WSW 13 17 7 9 1025.8 - 0.0
01/03:00am 8.4 5.5 8.3 99 0.0 WSW 13 - 7 - - 1025.8 0.0
01/02:31am 8.8 5.2 8.5 98 0.1 WSW 17 19 9 10 1025.6 - 0.0
01/02:01am 8.9 6.1 8.6 98 0.1 SW 13 17 7 9 1025.8 - 0.0
01/01:31am 9.1 5.2 7.1 87 0.9 WSW 17 20 9 11 1025.9 - 0.0
01/01:01am 9.2 6.3 8.0 92 0.6 WSW 13 19 7 10 1025.7 - 0.0
01/12:31am 8.6 6.5 8.3 98 0.1 W 9 11 5 6 1025.7 - 0.0
01/12:01am 8.4 5.9 8.1 98 0.1 W 11 11 6 6 1025.6 - 0.0
01/12:00am 8.4 5.9 8.1 98 0.1 W 11 11 6 6 1025.6 1025.6 -
 
Date/Time
WST
Temp
°C
App
Temp
°C
Dew
Point
Rel
Hum
%
Delta-T
°C
Wind Press
QNH
hPa
Press
MSL
hPa
Rain
since 9 am
mm
Dir
 
Spd
km/h
Gust
km/h
Spd
kts
Gust
kts
31/11:31pm 8.3 6.7 8.0 98 0.1 W 6 7 3 4 1025.5 - 0.0
31/11:01pm 9.0 7.4 8.7 98 0.1 SSW 7 9 4 5 1025.6 - 0.0
31/10:31pm 8.9 6.9 8.6 98 0.1 SW 9 11 5 6 1025.8 - 0.0
31/10:01pm 8.6 7.1 8.3 98 0.1 SW 6 7 3 4 1025.6 - 0.0
31/09:31pm 9.0 6.6 8.5 97 0.2 SW 11 15 6 8 1025.7 - 0.0
31/09:01pm 9.0 6.0 7.6 91 0.7 SW 13 17 7 9 1025.5 - 0.0
31/09:00pm 9.0 6.0 7.6 91 0.7 SW 13 - 7 - - 1025.6 0.0
31/08:31pm 10.0 5.7 7.1 82 1.4 SW 19 24 10 13 1025.4 - 0.0
31/08:01pm 10.3 5.8 6.8 79 1.7 SSW 20 30 11 16 1025.3 - 0.0
31/07:48pm 10.3 3.9 7.0 80 1.6 SSW 30 48 16 26 1025.1 - 0.0
31/07:31pm 10.9 4.6 5.7 70 2.4 SW 28 39 15 21 1024.7 - 0.0
31/07:01pm 11.5 5.6 5.6 67 2.8 SW 26 33 14 18 1024.3 - 0.0
31/06:31pm 12.1 5.9 4.3 59 3.5 SSW 26 35 14 19 1023.8 - 0.0
31/06:01pm 12.4 5.4 4.1 57 3.8 SSW 30 39 16 21 1023.4 - 0.0
31/06:00pm 12.4 5.4 4.1 57 3.8 SW 30 39 16 21 1023.4 1023.6 -
31/05:31pm 12.8 6.0 3.2 52 4.3 SSW 28 39 15 21 1022.8 - 0.0
31/05:01pm 13.1 5.5 2.6 49 4.7 SW 32 41 17 22 1022.4 - 0.0
31/04:31pm 13.5 5.5 3.6 51 4.5 SSW 35 44 19 24 1021.9 - 0.0
31/04:01pm 14.2 6.0 2.8 46 5.1 SW 35 46 19 25 1021.5 - 0.0
31/03:31pm 14.6 6.3 4.0 49 4.9 SSW 37 50 20 27 1021.3 - 0.0
31/03:01pm 14.9 7.3 5.7 54 4.4 SSW 35 46 19 25 1020.9 - 0.0
31/03:00pm 14.9 7.3 5.7 54 4.4 SSW 35 - 19 - - 1021.0 0.0
31/02:31pm 14.8 7.8 6.9 59 3.9 SW 33 50 18 27 1020.6 - 0.0
31/02:29pm 15.5 9.2 7.5 59 4.0 SW 30 50 16 27 1020.6 - 0.0
31/02:01pm 13.7 8.2 10.7 82 1.6 SW 30 41 16 22 1020.5 - 0.0
31/01:31pm 15.2 7.6 7.7 61 3.8 SW 37 46 20 25 1020.2 - 0.0
31/01:01pm 15.6 8.3 7.1 57 4.2 SW 35 46 19 25 1020.0 - 0.0
31/12:31pm 15.4 7.5 6.4 55 4.4 SSW 37 50 20 27 1020.0 - 0.0
31/12:01pm 15.7 8.1 5.9 52 4.8 SW 35 46 19 25 1019.8 - 0.0
31/12:00pm 15.7 8.1 5.9 52 4.7 SW 35 - 19 - - 1019.9 -
31/11:42am 16.1 8.9 5.7 50 5.0 SW 33 52 18 28 1019.9 - 0.0
31/11:31am 15.3 7.9 6.6 56 4.3 SW 35 46 19 25 1020.0 - 0.0
31/11:01am 15.5 6.1 7.0 57 4.2 SW 46 57 25 31 1020.0 - 0.0
31/10:31am 16.0 7.0 7.2 56 4.4 SW 44 56 24 30 1020.0 - 0.0
31/10:01am 15.4 6.8 6.7 56 4.3 SW 41 54 22 29 1019.9 - 0.0
31/09:37am 15.1 6.3 7.2 59 3.9 SW 43 61 23 33 1019.8 - 0.0
31/09:31am 14.9 5.8 6.7 58 4.0 SW 44 61 24 33 1019.7 - 0.0
31/09:15am 14.3 5.5 7.4 63 3.4 SW 43 65 23 35 1019.6 - 0.0
31/09:01am 14.0 5.2 8.0 67 3.0 SW 44 61 24 33 1019.7 - 0.0
31/09:00am 14.0 5.2 8.0 67 3.0 SW 44 - 24 - - 1019.8 0.0
31/08:42am 13.5 5.1 7.5 67 3.0 WSW 41 59 22 32 1019.4 - 0.0
31/08:31am 13.3 5.3 7.3 67 2.9 WSW 39 54 21 29 1019.2 - 0.0
31/08:01am 12.1 4.7 6.8 70 2.6 WSW 35 46 19 25 1018.7 - 0.0
31/07:31am 11.0 4.9 6.6 74 2.1 W 28 35 15 19 1018.1 - 0.0
31/07:01am 9.4 4.4 6.5 82 1.4 W 22 32 12 17 1017.8 - 0.0
31/06:31am 8.4 3.7 6.2 86 1.0 W 20 26 11 14 1017.5 - 0.0
31/06:01am 8.2 3.4 5.7 84 1.1 WNW 20 26 11 14 1017.1 - 0.0
31/06:00am 8.2 3.4 5.7 84 1.1 WNW 20 - 11 - - 1017.3 -
31/05:31am 8.6 3.8 5.5 81 1.4 W 20 24 11 13 1016.8 - 0.0
31/05:01am 8.9 3.6 5.1 77 1.7 W 22 26 12 14 1016.5 - 0.0
31/04:31am 9.1 3.8 5.1 76 1.8 W 22 28 12 15 1016.3 - 0.0
31/04:01am 9.1 4.1 4.7 74 2.0 W 20 24 11 13 1016.1 - 0.0
31/03:31am 9.8 4.1 4.8 71 2.3 W 24 30 13 16 1015.9 - 0.0
31/03:01am 9.6 3.3 4.0 68 2.5 W 26 32 14 17 1015.9 - 0.0
31/03:00am 9.6 3.3 4.0 68 2.5 W 26 - 14 - - 1016.0 0.0
31/02:31am 8.6 2.9 3.0 68 2.4 W 22 26 12 14 1015.7 - 0.0
31/02:01am 8.5 3.2 2.9 68 2.4 WNW 20 22 11 12 1015.7 - 0.0
31/01:31am 9.0 3.9 2.8 65 2.7 WNW 19 24 10 13 1015.8 - 0.0
31/01:01am 9.2 4.1 2.8 64 2.7 WNW 19 22 10 12 1016.0 - 0.0
31/12:31am 10.2 4.5 3.0 61 3.1 WNW 22 26 12 14 1016.0 - 0.0
31/12:01am 10.0 4.7 2.8 61 3.1 WNW 20 24 11 13 1015.9 - 0.0
31/12:00am 10.0 4.7 2.8 61 3.1 WNW 20 - 11 - - 1016.0 -
 
Date/Time
WST
Temp
°C
App
Temp
°C
Dew
Point
Rel
Hum
%
Delta-T
°C
Wind Press
QNH
hPa
Press
MSL
hPa
Rain
since 9 am
mm
Dir
 
Spd
km/h
Gust
km/h
Spd
kts
Gust
kts
30/11:31pm 9.8 4.7 3.1 63 2.9 NW 19 22 10 12 1016.1 - 0.0
30/11:01pm 10.0 4.9 3.3 63 2.9 NW 19 20 10 11 1016.2 - 0.0
30/10:31pm 9.4 4.7 3.4 66 2.6 NW 17 19 9 10 1016.3 - 0.0
30/10:01pm 9.3 4.6 3.3 66 2.6 NW 17 20 9 11 1016.4 - 0.0
30/09:31pm 11.1 6.4 3.4 59 3.4 NW 17 20 9 11 1016.6 - 0.0
30/09:01pm 10.2 5.3 4.1 66 2.7 WNW 19 20 10 11 1016.8 - 0.0
30/09:00pm 10.2 5.3 4.1 66 2.7 WNW 19 - 10 - - 1017.0 0.0
30/08:31pm 10.1 5.5 3.8 65 2.8 NW 17 20 9 11 1017.0 - 0.0
30/08:01pm 11.0 6.8 3.8 61 3.2 W 15 19 8 10 1017.1 - 0.0
30/07:31pm 11.4 6.8 3.9 60 3.4 NW 17 19 9 10 1017.1 - 0.0
30/07:01pm 11.6 6.7 3.9 59 3.5 NW 19 20 10 11 1017.0 - 0.0
30/06:31pm 12.7 7.5 3.6 54 4.1 NNW 20 20 11 11 1016.9 - 0.0
30/06:01pm 13.1 8.5 3.5 52 4.3 NW 17 19 9 10 1016.9 - 0.0
30/06:00pm 13.1 8.5 3.5 52 4.3 NW 17 - 9 - - 1017.1 -
30/05:31pm 15.1 10.8 3.3 45 5.4 NW 15 17 8 9 1016.8 - 0.0
30/05:01pm 18.0 12.8 2.7 36 7.1 NW 19 24 10 13 1016.5 - 0.0
30/04:31pm 20.0 13.1 2.8 32 8.1 NW 28 37 15 20 1016.4 - 0.0
30/04:01pm 21.1 13.9 2.9 30 8.7 WNW 30 39 16 21 1016.5 - 0.0
30/03:31pm 21.7 15.0 3.4 30 8.8 NW 28 39 15 21 1016.4 - 0.0
30/03:10pm 21.9 14.1 3.1 29 9.0 NW 33 52 18 28 1016.4 - 0.0
30/03:01pm 21.9 14.3 3.1 29 9.0 NW 32 43 17 23 1016.5 - 0.0
30/03:00pm 21.9 14.3 3.1 29 9.0 NW 32 - 17 - - 1016.6 0.0
30/02:31pm 22.0 14.3 3.2 29 9.1 NW 33 43 18 23 1016.7 - 0.0
30/02:01pm 22.1 14.6 3.3 29 9.1 WNW 32 41 17 22 1017.2 - 0.0
30/01:31pm 22.6 16.0 4.2 30 9.1 WNW 28 39 15 21 1017.4 - 0.0
30/01:01pm 21.8 14.1 3.5 30 8.9 WNW 33 43 18 23 1017.8 - 0.0
30/12:31pm 21.6 14.2 4.2 32 8.5 W 32 43 17 23 1018.3 - 0.0
30/12:01pm 21.6 15.0 4.2 32 8.5 WNW 28 39 15 21 1019.2 - 0.0
30/12:00pm 21.6 15.0 4.2 32 8.5 WNW 28 - 15 - - 1019.3 -
30/11:31am 21.3 14.8 4.8 34 8.2 W 28 37 15 20 1019.7 - 0.0
30/11:01am 21.0 15.3 5.0 35 7.9 WNW 24 35 13 19 1020.4 - 0.0
30/10:31am 20.1 14.4 5.0 37 7.4 WNW 24 32 13 17 1020.9 - 0.0
30/10:01am 19.2 14.0 5.6 41 6.7 NW 22 26 12 14 1021.4 - 0.0
30/09:31am 17.8 13.2 5.4 44 6.0 WNW 19 24 10 13 1021.7 - 0.0
30/09:01am 16.0 10.7 5.0 48 5.3 NW 22 26 12 14 1022.0 - 0.0
30/09:00am 16.0 10.7 5.0 48 5.2 NW 22 - 12 - - 1022.2 0.0
30/08:31am 13.7 8.7 4.8 55 4.2 WNW 20 28 11 15 1022.0 - 0.0
30/08:01am 11.5 6.5 4.7 63 3.1 NW 20 26 11 14 1021.8 - 0.0
30/07:31am 9.9 5.0 4.9 71 2.3 NW 20 26 11 14 1021.8 - 0.0
30/07:01am 7.4 3.2 5.7 89 0.8 NW 17 20 9 11 1021.7 - 0.0
30/06:31am 5.7 1.4 5.4 98 0.1 NW 17 19 9 10 1021.5 - 0.0
30/06:01am 5.6 1.3 5.2 97 0.2 NW 17 20 9 11 1021.3 - 0.0
30/06:00am 5.6 1.3 5.2 97 0.2 NW 17 - 9 - - 1021.4 -
30/05:31am 5.6 1.3 5.3 98 0.1 NW 17 19 9 10 1021.4 - 0.0
30/05:01am 6.2 1.6 5.8 97 0.2 NNW 19 20 10 11 1021.3 - 0.0
30/04:31am 6.1 1.9 5.7 97 0.2 NNW 17 19 9 10 1021.2 - 0.0
30/04:01am 6.2 1.6 5.8 97 0.2 NW 19 20 10 11 1021.3 - 0.0
30/03:31am 6.2 1.6 5.8 97 0.2 NW 19 20 10 11 1021.4 - 0.0
30/03:01am 6.7 2.2 6.3 97 0.2 NNW 19 20 10 11 1021.4 - 0.0
30/03:00am 6.7 2.2 6.3 97 0.2 NNW 19 - 10 - - 1021.5 0.0
30/02:31am 7.0 2.4 6.4 96 0.3 NW 20 22 11 12 1021.6 - 0.0
30/02:01am 6.8 2.4 6.4 97 0.2 NNW 19 20 10 11 1021.6 - 0.0
30/01:31am 6.9 2.5 6.5 97 0.2 NW 19 20 10 11 1021.8 - 0.0
30/01:01am 7.1 3.0 6.4 95 0.3 NW 17 19 9 10 1022.1 - 0.0
30/12:31am 7.5 2.9 6.3 92 0.6 NW 20 22 11 12 1022.3 - 0.0
30/12:01am 7.5 2.9 5.8 89 0.8 NW 19 20 10 11 1022.4 - 0.0
30/12:00am 7.5 2.9 5.8 89 0.8 NW 19 - 10 - - 1022.6 -
 
Date/Time
WST
Temp
°C
App
Temp
°C
Dew
Point
Rel
Hum
%
Delta-T
°C
Wind Press
QNH
hPa
Press
MSL
hPa
Rain
since 9 am
mm
Dir
 
Spd
km/h
Gust
km/h
Spd
kts
Gust
kts
29/11:31pm 8.1 3.4 6.1 87 0.9 NW 20 20 11 11 1022.5 - 0.0
29/11:01pm 8.2 3.7 6.2 87 0.9 NW 19 20 10 11 1022.7 - 0.0
29/10:31pm 8.4 4.0 6.7 89 0.8 NW 19 20 10 11 1022.8 - 0.0
29/10:01pm 8.4 4.1 6.9 90 0.7 NW 19 20 10 11 1023.0 - 0.0
29/09:31pm 8.6 4.5 6.4 86 1.0 NW 17 17 9 9 1023.1 - 0.0
29/09:01pm 9.1 5.0 6.2 82 1.3 WNW 17 17 9 9 1023.1 - 0.0
29/09:00pm 9.1 5.0 6.2 82 1.3 WNW 17 - 9 - - 1023.3 0.0
29/08:31pm 9.4 5.3 6.1 80 1.5 WNW 17 19 9 10 1023.1 - 0.0
29/08:01pm 9.9 6.2 6.2 78 1.7 WNW 15 17 8 9 1023.0 - 0.0
29/07:31pm 10.4 6.3 6.4 76 1.9 NW 17 17 9 9 1022.9 - 0.0
29/07:01pm 11.3 6.8 6.2 71 2.4 NW 19 20 10 11 1022.7 - 0.0
29/06:31pm 12.7 8.2 6.3 65 3.1 WNW 19 20 10 11 1022.5 - 0.0
29/06:01pm 13.1 9.4 6.2 63 3.3 W 15 17 8 9 1022.3 - 0.0
29/06:00pm 13.1 9.4 6.2 63 3.3 W 15 - 8 - - 1022.5 -
29/05:31pm 14.1 10.4 6.5 60 3.7 W 15 17 8 9 1022.0 - 0.0
29/05:01pm 16.2 12.5 6.3 52 4.9 W 15 17 8 9 1021.7 - 0.0
29/04:31pm 18.7 14.2 5.9 43 6.3 W 19 26 10 14 1021.5 - 0.0
29/04:01pm 19.8 14.3 5.8 40 7.0 W 24 30 13 16 1021.5 - 0.0
29/03:31pm 20.4 14.5 5.6 38 7.4 W 26 32 14 17 1021.4 - 0.0
29/03:01pm 20.5 14.5 5.3 37 7.5 W 26 32 14 17 1021.2 - 0.0
29/03:00pm 20.5 14.5 5.3 37 7.5 W 26 - 14 - - 1021.3 0.0
29/02:31pm 20.7 15.2 5.9 38 7.4 W 24 33 13 18 1021.2 - 0.0
29/02:01pm 20.9 14.7 6.1 38 7.5 W 28 35 15 19 1021.3 - 0.0
29/01:31pm 20.2 14.0 6.2 40 7.1 W 28 39 15 21 1021.3 - 0.0
29/01:01pm 20.0 13.4 6.0 40 7.0 W 30 48 16 26 1021.4 - 0.0
29/12:53pm 20.2 14.0 6.2 40 7.1 WNW 28 48 15 26 1021.4 - 0.0
29/12:31pm 19.9 13.4 6.3 41 6.9 W 30 41 16 22 1021.8 - 0.0
29/12:01pm 19.5 14.2 6.6 43 6.5 W 24 43 13 23 1022.3 - 0.0
29/12:00pm 19.5 14.2 6.6 43 6.5 W 24 - 13 - - 1022.5 -
29/11:31am 19.2 13.1 6.7 44 6.3 W 28 37 15 20 1022.8 - 0.0
29/11:01am 19.0 14.2 7.4 47 5.9 W 22 30 12 16 1023.4 - 0.0
29/10:31am 18.6 13.4 7.4 48 5.7 W 24 32 13 17 1023.8 - 0.0
29/10:01am 17.3 11.9 6.5 49 5.4 WSW 24 32 13 17 1024.3 - 0.0
29/09:31am 16.8 11.9 6.9 52 4.9 W 22 30 12 16 1024.4 - 0.0
29/09:01am 15.6 11.8 7.4 58 4.1 W 17 20 9 11 1024.3 - 0.0
29/09:00am 15.6 11.8 7.4 58 4.1 W 17 - 9 - - 1024.5 0.0
29/08:31am 13.4 9.7 6.5 63 3.3 W 15 19 8 10 1023.9 - 0.0
29/08:01am 11.1 6.5 5.6 69 2.6 W 19 20 10 11 1023.6 - 0.0

Other Formats:

Comma delimited format used in spreadsheet applications
http://www.bom.gov.au/fwo/IDW60801/IDW60801.95646.axf

JavaScript Object Notation format (JSON) in row-major order
http://www.bom.gov.au/fwo/IDW60801/IDW60801.95646.json